Atlantic, Virginia
Current Conditions -  °F | °C
As of 12:54 AM on Thursday 23 Oct 2014 (Local Time) from KWAL Reporting Station
Overcast Overcast  
Wind Chill: 56°   Ceiling: 2800
Heat Index: 56°   Visibility: 10mi
Dew Point: 47°   Wind: 14mph
Humidity: 72%   Direction: 330°NNW
Pressure: 29.81"   Gusts: 23mph
Location:  37.9°N, 75.51°W
Report Text: KWAL 230454Z AUTO 33012G20KT 10SM BKN028 BKN034 OVC050 13/08 A2981 RMK AO2 SLP090 T01330083 401720128
Loading
Personal Weather Stations






























Interactive Weather Map
Tropical Storm Tracking
New forecast layout! Learn more

10-Day Weather Forecast

Advertisements
Track Severe Weather on mobile